Terminal Aerodrome Forecast
Issued by NWS Grand Forks, ND

Home | Current Version | Previous Version | Text Only | Print | Product List | Glossary Off
Versions: 1 2 3 4 5 6 7 8 9 10 11 12 13 14 15

000
FTUS43 KFGF 231727
TAFFAR
TAF
KFAR 231727Z 2318/2418 14015G25KT P6SM SCT070 BKN200
     FM232000 16012G18KT P6SM VCSH SCT060 BKN140
     FM240200 15011KT P6SM VCSH SCT050 BKN200
     FM240800 15010KT P6SM BKN200
     FM241500 18012G20KT P6SM SCT250=

USA.gov is the U.S. government's official web portal to all federal, state and local government web resources and services.